EST,Max TemperatureF,Mean TemperatureF,Min TemperatureF,Max Dew PointF,MeanDew PointF,Min DewpointF,Max Humidity, Mean Humidity, Min Humidity, Max Sea Level PressureIn, Mean Sea Level PressureIn, Min Sea Level PressureIn, Max VisibilityMiles, Mean VisibilityMiles, Min VisibilityMiles, Max Wind SpeedMPH, Mean Wind SpeedMPH, Max Gust SpeedMPH,PrecipitationIn, CloudCover, Events, WindDirDegrees
2013-2-1,50,38,25,29,16,5,68,44,20,30.38,30.21,30.01,10,10,10,29,12,36,0.00,0,,289
2013-2-2,50,37,23,37,19,9,76,51,25,30.42,30.27,30.06,10,10,10,15,4,20,0.00,1,,196
2013-2-3,55,42,29,36,30,26,100,69,38,30.03,29.96,29.88,10,10,7,20,6,25,0.00,1,,279
2013-2-4,49,37,25,32,27,23,92,66,39,30.17,30.09,30.03,10,10,5,6,1,9,0.00,0,,188
2013-2-5,63,50,37,42,37,30,92,64,36,30.03,29.98,29.90,10,10,8,21,8,25,0.00,1,,229
2013-2-6,67,51,34,46,37,34,100,67,34,30.24,30.11,30.00,10,5,0,10,2,14,0.00,0,Fog,327
2013-2-7,55,48,41,48,44,36,93,79,65,30.27,30.10,29.82,10,5,2,20,10,25,0.55,5,Rain,49
2013-2-8,60,52,44,49,44,30,100,77,54,30.08,29.85,29.70,10,9,2,28,11,37,0.48,5,Rain,328
2013-2-9,57,44,31,30,26,21,82,53,24,30.36,30.24,30.09,10,10,10,16,5,23,0.00,0,,329
2013-2-10,60,44,27,47,34,26,92,65,38,30.48,30.36,30.27,10,10,7,13,5,17,0.03,3,Rain,115
2013-2-11,66,58,49,62,59,49,97,89,81,30.22,30.07,29.98,10,9,5,22,11,28,0.31,7,Rain,214
2013-2-12,63,57,50,55,46,34,100,67,34,30.12,30.01,29.95,10,10,5,15,4,20,0.14,2,Rain,255
2013-2-13,56,52,47,54,49,46,100,95,89,29.92,29.76,29.62,10,5,1,18,7,25,0.21,7,Rain,36
2013-2-14,53,45,36,45,36,33,93,72,50,30.08,30.01,29.87,10,10,9,16,3,22,0.00,0,,329
2013-2-15,61,46,31,40,36,31,100,70,39,30.11,30.03,29.95,10,9,5,10,1,14,0.00,0,,210
2013-2-16,47,41,34,38,34,31,92,79,65,29.96,29.88,29.80,10,7,1,18,8,24,0.25,7,Rain-Snow,335
2013-2-17,41,34,26,25,19,12,82,58,33,30.30,30.14,29.97,10,10,10,25,11,36,0.00,0,,290
2013-2-18,53,37,21,29,22,14,92,58,24,30.44,30.36,30.30,10,10,10,12,3,20,0.00,0,,165
2013-2-19,56,44,31,54,45,28,100,83,66,30.26,30.02,29.91,10,6,0,20,7,28,0.08,5,Fog-Rain,217
2013-2-20,55,42,29,41,31,18,100,63,26,30.13,30.06,29.98,10,9,1,15,4,17,0.00,0,,280
2013-2-21,58,43,27,36,25,20,82,55,28,30.23,30.17,30.11,10,10,10,12,3,24,0.00,0,,25
2013-2-22,47,43,39,39,34,25,100,71,42,30.30,30.20,30.11,10,6,2,15,8,21,0.04,7,Rain,51
2013-2-23,47,43,39,46,42,37,100,96,92,30.10,29.94,29.83,10,3,0,13,4,16,0.82,8,Fog-Rain,7
2013-2-24,64,52,39,48,44,38,100,70,40,30.01,29.90,29.81,10,5,1,14,6,23,0.02,5,Rain,286
2013-2-25,45,42,38,37,29,25,92,71,49,30.19,30.11,30.02,10,10,10,17,9,22,0.00,2,,53
2013-2-26,69,54,39,65,50,28,100,79,57,30.07,29.76,29.55,10,5,1,17,8,23,1.16,7,Rain,78
2013-2-27,59,51,43,46,41,38,100,76,51,29.84,29.76,29.69,10,10,7,17,9,22,0.00,0,,239
2013-2-28,52,43,33,40,35,29,100,73,46,29.87,29.78,29.74,10,9,2,17,7,22,0.00,2,,277